Lotbiniere, Canada
Current Conditions -  °F | °C
As of 7:00 AM on Friday 28 Nov 2014 (Local Time) from CYQB Reporting Station
Overcast Overcast  
Wind Chill: 15°   Ceiling: 7000
Heat Index: 21°   Visibility: 30mi
Dew Point: 14°   Wind: 5mph
Humidity: 74%   Direction: 60°ENE
Pressure: 30.05"   Gusts: NA
Location:  46.62°N, 71.93°W
Report Text: CYQB 281200Z 06004KT 030V100 30SM FEW040 BKN070 OVC090 M06/M10 A3005 RMK SC1AC5AC2 SLP181
Loading
Personal Weather Stations






























Interactive Weather Map New forecast layout! Learn more

10-Day Weather Forecast

Advertisements
Track Severe Weather on mobile